sensor_id;sensor_type;location;lat;lon;timestamp;pressure;altitude;pressure_sealevel;temperature;humidity
2875;BME280;1445;52.600;13.328;2023-09-18T00:01:36;100620.22;;;21.51;nan
2875;BME280;1445;52.600;13.328;2023-09-18T00:04:02;100624.19;;;21.47;nan
2875;BME280;1445;52.600;13.328;2023-09-18T00:06:28;100615.66;;;21.39;nan
2875;BME280;1445;52.600;13.328;2023-09-18T00:08:55;100618.56;;;21.47;nan
2875;BME280;1445;52.600;13.328;2023-09-18T00:11:20;100612.41;;;21.37;nan
2875;BME280;1445;52.600;13.328;2023-09-18T00:13:46;100619.63;;;21.35;nan
2875;BME280;1445;52.600;13.328;2023-09-18T00:16:11;100619.28;;;21.40;nan
2875;BME280;1445;52.600;13.328;2023-09-18T00:18:38;100610.06;;;21.39;nan
2875;BME280;1445;52.600;13.328;2023-09-18T00:21:03;100610.41;;;21.34;nan
2875;BME280;1445;52.600;13.328;2023-09-18T00:23:29;100607.13;;;21.32;nan
2875;BME280;1445;52.600;13.328;2023-09-18T00:25:54;100609.88;;;21.29;nan
2875;BME280;1445;52.600;13.328;2023-09-18T00:28:20;100608.69;;;21.30;nan
2875;BME280;1445;52.600;13.328;2023-09-18T00:30:49;100605.50;;;21.31;nan
2875;BME280;1445;52.600;13.328;2023-09-18T00:33:15;100596.13;;;21.20;nan
2875;BME280;1445;52.600;13.328;2023-09-18T00:35:48;100597.81;;;21.25;nan
2875;BME280;1445;52.600;13.328;2023-09-18T00:38:14;100594.50;;;21.19;nan
2875;BME280;1445;52.600;13.328;2023-09-18T00:40:39;100601.59;;;21.13;nan
2875;BME280;1445;52.600;13.328;2023-09-18T00:43:05;100597.53;;;21.07;nan
2875;BME280;1445;52.600;13.328;2023-09-18T00:45:30;100596.69;;;21.03;nan
2875;BME280;1445;52.600;13.328;2023-09-18T00:47:56;100598.16;;;20.96;nan
2875;BME280;1445;52.600;13.328;2023-09-18T00:50:24;100589.81;;;21.00;nan
2875;BME280;1445;52.600;13.328;2023-09-18T00:52:50;100593.38;;;20.97;nan
2875;BME280;1445;52.600;13.328;2023-09-18T00:55:16;100591.38;;;20.97;nan
2875;BME280;1445;52.600;13.328;2023-09-18T00:57:42;100590.13;;;20.95;nan
2875;BME280;1445;52.600;13.328;2023-09-18T01:00:08;100586.50;;;20.94;nan
2875;BME280;1445;52.600;13.328;2023-09-18T01:02:34;100600.00;;;20.85;nan
2875;BME280;1445;52.600;13.328;2023-09-18T01:05:00;100595.19;;;20.86;nan
2875;BME280;1445;52.600;13.328;2023-09-18T01:07:26;100598.00;;;20.86;nan
2875;BME280;1445;52.600;13.328;2023-09-18T01:09:51;100599.56;;;20.83;nan
2875;BME280;1445;52.600;13.328;2023-09-18T01:15:07;100593.25;;;20.67;nan
2875;BME280;1445;52.600;13.328;2023-09-18T01:17:36;100585.31;;;20.69;nan
2875;BME280;1445;52.600;13.328;2023-09-18T01:20:08;100589.59;;;20.63;nan
2875;BME280;1445;52.600;13.328;2023-09-18T01:22:34;100587.38;;;20.72;nan
2875;BME280;1445;52.600;13.328;2023-09-18T01:24:59;100576.41;;;20.63;nan
2875;BME280;1445;52.600;13.328;2023-09-18T01:27:25;100581.19;;;20.63;nan
2875;BME280;1445;52.600;13.328;2023-09-18T01:29:50;100580.31;;;20.59;nan
2875;BME280;1445;52.600;13.328;2023-09-18T01:32:16;100587.13;;;20.58;nan
2875;BME280;1445;52.600;13.328;2023-09-18T01:34:47;100579.53;;;20.58;nan
2875;BME280;1445;52.600;13.328;2023-09-18T01:37:15;100575.91;;;20.58;nan
2875;BME280;1445;52.600;13.328;2023-09-18T01:39:42;100581.41;;;20.51;nan
2875;BME280;1445;52.600;13.328;2023-09-18T01:42:09;100578.06;;;20.45;nan
2875;BME280;1445;52.600;13.328;2023-09-18T01:44:35;100576.84;;;20.46;nan
2875;BME280;1445;52.600;13.328;2023-09-18T01:47:07;100576.50;;;20.47;nan
2875;BME280;1445;52.600;13.328;2023-09-18T01:49:39;100571.19;;;20.42;nan
2875;BME280;1445;52.600;13.328;2023-09-18T01:52:05;100574.00;;;20.42;nan
2875;BME280;1445;52.600;13.328;2023-09-18T01:54:33;100576.00;;;20.42;nan
2875;BME280;1445;52.600;13.328;2023-09-18T01:57:02;100579.91;;;20.37;nan
2875;BME280;1445;52.600;13.328;2023-09-18T01:59:28;100574.25;;;20.34;nan
2875;BME280;1445;52.600;13.328;2023-09-18T02:01:54;100571.75;;;20.29;nan
2875;BME280;1445;52.600;13.328;2023-09-18T02:04:20;100547.31;;;20.25;nan
2875;BME280;1445;52.600;13.328;2023-09-18T02:06:47;100546.06;;;20.23;nan
2875;BME280;1445;52.600;13.328;2023-09-18T02:09:13;100540.88;;;20.25;nan
2875;BME280;1445;52.600;13.328;2023-09-18T02:11:40;100530.47;;;20.22;nan
2875;BME280;1445;52.600;13.328;2023-09-18T02:14:06;100533.19;;;20.18;nan
2875;BME280;1445;52.600;13.328;2023-09-18T02:16:35;100526.34;;;20.16;nan
2875;BME280;1445;52.600;13.328;2023-09-18T02:19:01;100514.69;;;20.14;nan
2875;BME280;1445;52.600;13.328;2023-09-18T02:21:27;100508.56;;;20.05;nan
2875;BME280;1445;52.600;13.328;2023-09-18T02:23:53;100509.78;;;20.07;nan
2875;BME280;1445;52.600;13.328;2023-09-18T02:26:19;100514.16;;;20.05;nan
2875;BME280;1445;52.600;13.328;2023-09-18T02:28:45;100515.19;;;19.96;nan
2875;BME280;1445;52.600;13.328;2023-09-18T02:31:11;100511.97;;;19.94;nan
2875;BME280;1445;52.600;13.328;2023-09-18T02:33:37;100504.31;;;19.91;nan
2875;BME280;1445;52.600;13.328;2023-09-18T02:36:03;100514.97;;;19.86;nan
2875;BME280;1445;52.600;13.328;2023-09-18T02:38:29;100506.97;;;19.84;nan
2875;BME280;1445;52.600;13.328;2023-09-18T02:40:57;100512.91;;;19.83;nan
2875;BME280;1445;52.600;13.328;2023-09-18T02:43:23;100510.50;;;19.81;nan
2875;BME280;1445;52.600;13.328;2023-09-18T02:45:49;100503.66;;;19.78;nan
2875;BME280;1445;52.600;13.328;2023-09-18T02:48:16;100495.34;;;19.82;nan
2875;BME280;1445;52.600;13.328;2023-09-18T02:50:41;100490.47;;;19.79;nan
2875;BME280;1445;52.600;13.328;2023-09-18T02:53:11;100499.31;;;19.81;nan
2875;BME280;1445;52.600;13.328;2023-09-18T02:55:41;100491.66;;;19.78;nan
2875;BME280;1445;52.600;13.328;2023-09-18T02:58:06;100489.53;;;19.71;nan
2875;BME280;1445;52.600;13.328;2023-09-18T03:00:34;100492.72;;;19.70;nan
2875;BME280;1445;52.600;13.328;2023-09-18T03:02:59;100491.06;;;19.69;nan
2875;BME280;1445;52.600;13.328;2023-09-18T03:05:25;100482.25;;;19.67;nan
2875;BME280;1445;52.600;13.328;2023-09-18T03:07:51;100479.47;;;19.67;nan
2875;BME280;1445;52.600;13.328;2023-09-18T03:10:16;100477.41;;;19.64;nan
2875;BME280;1445;52.600;13.328;2023-09-18T03:12:47;100468.53;;;19.62;nan
2875;BME280;1445;52.600;13.328;2023-09-18T03:15:13;100466.78;;;19.53;nan
2875;BME280;1445;52.600;13.328;2023-09-18T03:17:38;100466.94;;;19.61;nan
2875;BME280;1445;52.600;13.328;2023-09-18T03:20:06;100469.59;;;19.53;nan
2875;BME280;1445;52.600;13.328;2023-09-18T03:22:32;100473.19;;;19.54;nan
2875;BME280;1445;52.600;13.328;2023-09-18T03:24:57;100473.50;;;19.49;nan
2875;BME280;1445;52.600;13.328;2023-09-18T03:27:23;100477.91;;;19.50;nan
2875;BME280;1445;52.600;13.328;2023-09-18T03:29:56;100473.84;;;19.47;nan
2875;BME280;1445;52.600;13.328;2023-09-18T03:32:22;100466.19;;;19.44;nan
2875;BME280;1445;52.600;13.328;2023-09-18T03:34:50;100470.97;;;19.44;nan
2875;BME280;1445;52.600;13.328;2023-09-18T03:37:16;100478.50;;;19.40;nan
2875;BME280;1445;52.600;13.328;2023-09-18T03:39:41;100471.94;;;19.32;nan
2875;BME280;1445;52.600;13.328;2023-09-18T03:42:07;100466.28;;;19.28;nan
2875;BME280;1445;52.600;13.328;2023-09-18T03:44:32;100469.47;;;19.27;nan
2875;BME280;1445;52.600;13.328;2023-09-18T03:46:57;100465.56;;;19.31;nan
2875;BME280;1445;52.600;13.328;2023-09-18T03:49:23;100470.25;;;19.27;nan
2875;BME280;1445;52.600;13.328;2023-09-18T03:51:48;100467.00;;;19.25;nan
2875;BME280;1445;52.600;13.328;2023-09-18T03:54:13;100465.69;;;19.19;nan
2875;BME280;1445;52.600;13.328;2023-09-18T03:56:39;100470.91;;;19.21;nan
2875;BME280;1445;52.600;13.328;2023-09-18T03:59:05;100467.66;;;19.19;nan
2875;BME280;1445;52.600;13.328;2023-09-18T04:01:31;100459.75;;;19.21;nan
2875;BME280;1445;52.600;13.328;2023-09-18T04:03:56;100462.66;;;19.08;nan
2875;BME280;1445;52.600;13.328;2023-09-18T04:06:22;100460.75;;;19.13;nan
2875;BME280;1445;52.600;13.328;2023-09-18T04:08:50;100459.59;;;19.14;nan
2875;BME280;1445;52.600;13.328;2023-09-18T04:11:16;100453.56;;;19.12;nan
2875;BME280;1445;52.600;13.328;2023-09-18T04:13:42;100452.13;;;19.02;nan
2875;BME280;1445;52.600;13.328;2023-09-18T04:16:07;100460.16;;;19.03;nan
2875;BME280;1445;52.600;13.328;2023-09-18T04:18:33;100452.13;;;19.02;nan
2875;BME280;1445;52.600;13.328;2023-09-18T04:20:58;100452.66;;;19.07;nan
2875;BME280;1445;52.600;13.328;2023-09-18T04:23:26;100443.09;;;19.08;nan
2875;BME280;1445;52.600;13.328;2023-09-18T04:25:53;100442.75;;;19.10;nan
2875;BME280;1445;52.600;13.328;2023-09-18T04:28:21;100437.16;;;19.10;nan
2875;BME280;1445;52.600;13.328;2023-09-18T04:30:47;100436.78;;;19.12;nan
2875;BME280;1445;52.600;13.328;2023-09-18T04:33:14;100432.72;;;19.09;nan
2875;BME280;1445;52.600;13.328;2023-09-18T04:35:40;100437.25;;;19.14;nan
2875;BME280;1445;52.600;13.328;2023-09-18T04:38:07;100434.44;;;19.14;nan
2875;BME280;1445;52.600;13.328;2023-09-18T04:40:33;100426.94;;;19.18;nan
2875;BME280;1445;52.600;13.328;2023-09-18T04:42:59;100427.75;;;19.18;nan
2875;BME280;1445;52.600;13.328;2023-09-18T04:45:25;100423.34;;;19.17;nan
2875;BME280;1445;52.600;13.328;2023-09-18T04:47:51;100419.59;;;19.10;nan
2875;BME280;1445;52.600;13.328;2023-09-18T04:50:16;100419.28;;;19.15;nan
2875;BME280;1445;52.600;13.328;2023-09-18T04:52:42;100419.66;;;19.13;nan
2875;BME280;1445;52.600;13.328;2023-09-18T04:55:08;100426.06;;;19.14;nan
2875;BME280;1445;52.600;13.328;2023-09-18T04:57:34;100429.13;;;19.08;nan
2875;BME280;1445;52.600;13.328;2023-09-18T05:00:00;100427.53;;;19.07;nan
2875;BME280;1445;52.600;13.328;2023-09-18T05:02:25;100431.78;;;19.01;nan
2875;BME280;1445;52.600;13.328;2023-09-18T05:04:51;100424.28;;;19.05;nan
2875;BME280;1445;52.600;13.328;2023-09-18T05:07:17;100422.66;;;19.04;nan
2875;BME280;1445;52.600;13.328;2023-09-18T05:09:42;100416.34;;;19.07;nan
2875;BME280;1445;52.600;13.328;2023-09-18T05:12:09;100423.53;;;19.08;nan
2875;BME280;1445;52.600;13.328;2023-09-18T05:14:39;100414.09;;;19.13;nan
2875;BME280;1445;52.600;13.328;2023-09-18T05:17:05;100405.78;;;19.17;nan
2875;BME280;1445;52.600;13.328;2023-09-18T05:19:30;100399.41;;;19.20;nan
2875;BME280;1445;52.600;13.328;2023-09-18T05:21:56;100401.06;;;19.21;nan
2875;BME280;1445;52.600;13.328;2023-09-18T05:24:21;100408.72;;;19.24;nan
2875;BME280;1445;52.600;13.328;2023-09-18T05:26:52;100397.66;;;19.31;nan
2875;BME280;1445;52.600;13.328;2023-09-18T05:29:18;100398.97;;;19.37;nan
2875;BME280;1445;52.600;13.328;2023-09-18T05:31:43;100393.91;;;19.43;nan
2875;BME280;1445;52.600;13.328;2023-09-18T05:34:09;100392.03;;;19.50;nan
2875;BME280;1445;52.600;13.328;2023-09-18T05:36:34;100397.34;;;19.55;nan
2875;BME280;1445;52.600;13.328;2023-09-18T05:39:00;100388.94;;;19.55;nan
2875;BME280;1445;52.600;13.328;2023-09-18T05:41:25;100391.16;;;19.66;nan
2875;BME280;1445;52.600;13.328;2023-09-18T05:43:54;100386.63;;;19.81;nan
2875;BME280;1445;52.600;13.328;2023-09-18T05:46:19;100371.91;;;19.84;nan
2875;BME280;1445;52.600;13.328;2023-09-18T05:48:45;100372.31;;;19.86;nan
2875;BME280;1445;52.600;13.328;2023-09-18T05:51:10;100360.56;;;19.99;nan
2875;BME280;1445;52.600;13.328;2023-09-18T05:53:35;100362.09;;;19.97;nan
2875;BME280;1445;52.600;13.328;2023-09-18T05:56:03;100360.31;;;20.08;nan
2875;BME280;1445;52.600;13.328;2023-09-18T05:58:31;100359.56;;;20.11;nan
2875;BME280;1445;52.600;13.328;2023-09-18T06:00:58;100357.63;;;20.15;nan
2875;BME280;1445;52.600;13.328;2023-09-18T06:03:26;100349.59;;;20.14;nan
2875;BME280;1445;52.600;13.328;2023-09-18T06:05:51;100342.50;;;20.20;nan
2875;BME280;1445;52.600;13.328;2023-09-18T06:08:17;100333.88;;;20.32;nan
2875;BME280;1445;52.600;13.328;2023-09-18T06:10:44;100330.66;;;20.30;nan
2875;BME280;1445;52.600;13.328;2023-09-18T06:13:10;100322.78;;;20.39;nan
2875;BME280;1445;52.600;13.328;2023-09-18T06:15:35;100324.34;;;20.37;nan
2875;BME280;1445;52.600;13.328;2023-09-18T06:18:01;100318.91;;;20.47;nan
2875;BME280;1445;52.600;13.328;2023-09-18T06:20:28;100312.56;;;20.51;nan
2875;BME280;1445;52.600;13.328;2023-09-18T06:22:54;100320.56;;;20.52;nan
2875;BME280;1445;52.600;13.328;2023-09-18T06:25:19;100317.81;;;20.56;nan
2875;BME280;1445;52.600;13.328;2023-09-18T06:27:45;100309.97;;;20.65;nan
2875;BME280;1445;52.600;13.328;2023-09-18T06:30:11;100311.28;;;20.75;nan
2875;BME280;1445;52.600;13.328;2023-09-18T06:32:37;100310.44;;;20.74;nan
2875;BME280;1445;52.600;13.328;2023-09-18T06:35:03;100306.09;;;20.77;nan
2875;BME280;1445;52.600;13.328;2023-09-18T06:37:28;100304.09;;;20.77;nan
2875;BME280;1445;52.600;13.328;2023-09-18T06:39:55;100302.97;;;20.82;nan
2875;BME280;1445;52.600;13.328;2023-09-18T06:42:22;100301.00;;;20.86;nan
2875;BME280;1445;52.600;13.328;2023-09-18T06:44:47;100296.19;;;20.86;nan
2875;BME280;1445;52.600;13.328;2023-09-18T06:47:12;100285.38;;;20.85;nan
2875;BME280;1445;52.600;13.328;2023-09-18T06:49:40;100287.91;;;20.97;nan
2875;BME280;1445;52.600;13.328;2023-09-18T06:52:07;100282.00;;;21.06;nan
2875;BME280;1445;52.600;13.328;2023-09-18T06:54:32;100277.25;;;21.10;nan
2875;BME280;1445;52.600;13.328;2023-09-18T06:56:58;100275.28;;;21.14;nan
2875;BME280;1445;52.600;13.328;2023-09-18T06:59:23;100271.78;;;21.24;nan
2875;BME280;1445;52.600;13.328;2023-09-18T07:01:48;100258.72;;;21.39;nan
2875;BME280;1445;52.600;13.328;2023-09-18T07:04:14;100258.38;;;21.44;nan
2875;BME280;1445;52.600;13.328;2023-09-18T07:06:39;100259.72;;;21.61;nan
2875;BME280;1445;52.600;13.328;2023-09-18T07:09:05;100249.34;;;21.68;nan
2875;BME280;1445;52.600;13.328;2023-09-18T07:11:33;100240.19;;;21.75;nan
2875;BME280;1445;52.600;13.328;2023-09-18T07:13:58;100240.56;;;21.70;nan
2875;BME280;1445;52.600;13.328;2023-09-18T07:16:24;100235.41;;;21.79;nan
2875;BME280;1445;52.600;13.328;2023-09-18T07:18:50;100225.41;;;21.85;nan
2875;BME280;1445;52.600;13.328;2023-09-18T07:21:15;100216.31;;;22.03;nan
2875;BME280;1445;52.600;13.328;2023-09-18T07:23:40;100216.34;;;22.10;nan
2875;BME280;1445;52.600;13.328;2023-09-18T07:26:06;100214.81;;;22.20;nan
2875;BME280;1445;52.600;13.328;2023-09-18T07:28:32;100220.47;;;22.27;nan
2875;BME280;1445;52.600;13.328;2023-09-18T07:31:08;100215.31;;;22.36;nan
2875;BME280;1445;52.600;13.328;2023-09-18T07:33:34;100220.53;;;22.41;nan
2875;BME280;1445;52.600;13.328;2023-09-18T07:36:00;100218.16;;;22.43;nan
2875;BME280;1445;52.600;13.328;2023-09-18T07:38:25;100209.78;;;22.61;nan
2875;BME280;1445;52.600;13.328;2023-09-18T07:40:50;100198.94;;;22.67;nan
2875;BME280;1445;52.600;13.328;2023-09-18T07:43:16;100202.19;;;22.72;nan
2875;BME280;1445;52.600;13.328;2023-09-18T07:45:41;100210.19;;;22.70;nan
2875;BME280;1445;52.600;13.328;2023-09-18T07:48:07;100202.97;;;22.76;nan
2875;BME280;1445;52.600;13.328;2023-09-18T07:50:34;100198.16;;;22.77;nan
2875;BME280;1445;52.600;13.328;2023-09-18T07:53:00;100197.38;;;22.91;nan
2875;BME280;1445;52.600;13.328;2023-09-18T07:55:26;100197.03;;;22.96;nan
2875;BME280;1445;52.600;13.328;2023-09-18T07:57:51;100193.03;;;23.04;nan
2875;BME280;1445;52.600;13.328;2023-09-18T08:00:17;100192.63;;;23.13;nan
2875;BME280;1445;52.600;13.328;2023-09-18T08:02:43;100190.63;;;23.20;nan
2875;BME280;1445;52.600;13.328;2023-09-18T08:05:09;100190.22;;;23.25;nan
2875;BME280;1445;52.600;13.328;2023-09-18T08:07:36;100196.25;;;23.34;nan
2875;BME280;1445;52.600;13.328;2023-09-18T08:10:07;100190.63;;;23.45;nan
2875;BME280;1445;52.600;13.328;2023-09-18T08:12:34;100187.00;;;23.45;nan
2875;BME280;1445;52.600;13.328;2023-09-18T08:15:00;100174.13;;;23.69;nan
2875;BME280;1445;52.600;13.328;2023-09-18T08:17:26;100170.06;;;23.91;nan
2875;BME280;1445;52.600;13.328;2023-09-18T08:19:52;100159.53;;;24.10;nan
2875;BME280;1445;52.600;13.328;2023-09-18T08:22:18;100164.78;;;24.04;nan
2875;BME280;1445;52.600;13.328;2023-09-18T08:24:48;100158.75;;;24.09;nan
2875;BME280;1445;52.600;13.328;2023-09-18T08:27:16;100157.91;;;24.16;nan
2875;BME280;1445;52.600;13.328;2023-09-18T08:29:42;100154.59;;;24.32;nan
2875;BME280;1445;52.600;13.328;2023-09-18T08:32:08;100157.34;;;24.49;nan
2875;BME280;1445;52.600;13.328;2023-09-18T08:34:34;100148.88;;;24.57;nan
2875;BME280;1445;52.600;13.328;2023-09-18T08:36:59;100167.69;;;24.74;nan
2875;BME280;1445;52.600;13.328;2023-09-18T08:39:24;100162.38;;;24.87;nan
2875;BME280;1445;52.600;13.328;2023-09-18T08:41:51;100152.56;;;25.02;nan
2875;BME280;1445;52.600;13.328;2023-09-18T08:44:22;100147.16;;;25.29;nan
2875;BME280;1445;52.600;13.328;2023-09-18T08:46:51;100153.25;;;25.24;nan
2875;BME280;1445;52.600;13.328;2023-09-18T08:49:17;100151.28;;;25.17;nan
2875;BME280;1445;52.600;13.328;2023-09-18T08:51:43;100147.28;;;25.15;nan
2875;BME280;1445;52.600;13.328;2023-09-18T08:54:09;100139.97;;;25.21;nan
2875;BME280;1445;52.600;13.328;2023-09-18T08:56:35;100133.78;;;25.37;nan
2875;BME280;1445;52.600;13.328;2023-09-18T08:59:01;100133.56;;;25.58;nan
2875;BME280;1445;52.600;13.328;2023-09-18T09:01:26;100136.97;;;25.84;nan
2875;BME280;1445;52.600;13.328;2023-09-18T09:03:52;100119.06;;;26.25;nan
2875;BME280;1445;52.600;13.328;2023-09-18T09:06:17;100115.59;;;26.44;nan
2875;BME280;1445;52.600;13.328;2023-09-18T09:08:43;100103.13;;;26.69;nan
2875;BME280;1445;52.600;13.328;2023-09-18T09:11:08;100109.38;;;26.56;nan
2875;BME280;1445;52.600;13.328;2023-09-18T09:13:34;100103.66;;;26.60;nan
2875;BME280;1445;52.600;13.328;2023-09-18T09:15:59;100094.28;;;26.67;nan
2875;BME280;1445;52.600;13.328;2023-09-18T09:18:27;100099.97;;;26.90;nan
2875;BME280;1445;52.600;13.328;2023-09-18T09:23:22;100077.38;;;27.14;nan
2875;BME280;1445;52.600;13.328;2023-09-18T09:25:48;100083.47;;;27.08;nan
2875;BME280;1445;52.600;13.328;2023-09-18T09:28:14;100079.25;;;26.97;nan
2875;BME280;1445;52.600;13.328;2023-09-18T09:30:39;100076.94;;;27.15;nan
2875;BME280;1445;52.600;13.328;2023-09-18T09:33:05;100068.34;;;27.42;nan
2875;BME280;1445;52.600;13.328;2023-09-18T09:35:35;100062.97;;;27.48;nan
2875;BME280;1445;52.600;13.328;2023-09-18T09:38:07;100068.13;;;27.73;nan
2875;BME280;1445;52.600;13.328;2023-09-18T09:40:33;100057.19;;;27.75;nan
2875;BME280;1445;52.600;13.328;2023-09-18T09:43:00;100060.75;;;27.79;nan
2875;BME280;1445;52.600;13.328;2023-09-18T09:45:29;100046.06;;;28.04;nan
2875;BME280;1445;52.600;13.328;2023-09-18T09:47:56;100045.78;;;27.98;nan
2875;BME280;1445;52.600;13.328;2023-09-18T09:50:22;100051.34;;;27.62;nan
2875;BME280;1445;52.600;13.328;2023-09-18T09:52:52;100041.50;;;27.50;nan
2875;BME280;1445;52.600;13.328;2023-09-18T09:55:28;100060.38;;;27.57;nan
2875;BME280;1445;52.600;13.328;2023-09-18T09:58:04;100063.69;;;27.52;nan
2875;BME280;1445;52.600;13.328;2023-09-18T10:00:49;100058.25;;;27.41;nan
2875;BME280;1445;52.600;13.328;2023-09-18T10:03:18;100057.38;;;27.44;nan
2875;BME280;1445;52.600;13.328;2023-09-18T10:05:46;100051.81;;;27.60;nan
2875;BME280;1445;52.600;13.328;2023-09-18T10:08:21;100044.41;;;27.87;nan
2875;BME280;1445;52.600;13.328;2023-09-18T10:10:51;100038.66;;;27.70;nan
2875;BME280;1445;52.600;13.328;2023-09-18T10:13:33;100030.66;;;28.05;nan
2875;BME280;1445;52.600;13.328;2023-09-18T10:16:01;100039.97;;;28.22;nan
2875;BME280;1445;52.600;13.328;2023-09-18T10:18:36;100040.13;;;27.98;nan
2875;BME280;1445;52.600;13.328;2023-09-18T10:21:15;100043.06;;;28.11;nan
2875;BME280;1445;52.600;13.328;2023-09-18T10:27:00;100025.88;;;28.54;nan
2875;BME280;1445;52.600;13.328;2023-09-18T10:29:29;100028.63;;;28.42;nan
2875;BME280;1445;52.600;13.328;2023-09-18T10:31:55;100027.28;;;28.46;nan
2875;BME280;1445;52.600;13.328;2023-09-18T10:34:23;100048.28;;;28.49;nan
2875;BME280;1445;52.600;13.328;2023-09-18T10:36:53;100054.81;;;28.29;nan
2875;BME280;1445;52.600;13.328;2023-09-18T10:39:20;100052.19;;;28.39;nan
2875;BME280;1445;52.600;13.328;2023-09-18T10:41:53;100062.84;;;28.84;nan
2875;BME280;1445;52.600;13.328;2023-09-18T10:44:18;100057.94;;;29.17;nan
2875;BME280;1445;52.600;13.328;2023-09-18T10:46:45;100068.00;;;28.72;nan
2875;BME280;1445;52.600;13.328;2023-09-18T10:49:11;100066.63;;;28.61;nan
2875;BME280;1445;52.600;13.328;2023-09-18T10:51:37;100065.78;;;28.96;nan
2875;BME280;1445;52.600;13.328;2023-09-18T10:54:08;100050.63;;;29.48;nan
2875;BME280;1445;52.600;13.328;2023-09-18T10:56:34;100053.19;;;29.14;nan
2875;BME280;1445;52.600;13.328;2023-09-18T10:59:00;100039.72;;;28.69;nan
2875;BME280;1445;52.600;13.328;2023-09-18T11:01:28;100031.59;;;28.35;nan
2875;BME280;1445;52.600;13.328;2023-09-18T11:03:58;100035.38;;;28.12;nan
2875;BME280;1445;52.600;13.328;2023-09-18T11:06:25;100046.91;;;27.85;nan
2875;BME280;1445;52.600;13.328;2023-09-18T11:08:59;100053.91;;;27.56;nan
2875;BME280;1445;52.600;13.328;2023-09-18T11:11:27;100058.78;;;27.56;nan
2875;BME280;1445;52.600;13.328;2023-09-18T11:13:55;100066.53;;;27.52;nan
2875;BME280;1445;52.600;13.328;2023-09-18T11:18:56;100060.19;;;27.24;nan
2875;BME280;1445;52.600;13.328;2023-09-18T11:21:34;100057.66;;;27.30;nan
2875;BME280;1445;52.600;13.328;2023-09-18T11:24:07;100060.63;;;27.23;nan
2875;BME280;1445;52.600;13.328;2023-09-18T11:26:43;100057.84;;;27.19;nan
2875;BME280;1445;52.600;13.328;2023-09-18T11:29:13;100053.78;;;27.20;nan
2875;BME280;1445;52.600;13.328;2023-09-18T11:34:22;100061.00;;;27.25;nan
2875;BME280;1445;52.600;13.328;2023-09-18T11:36:48;100062.97;;;27.28;nan
2875;BME280;1445;52.600;13.328;2023-09-18T11:39:35;100060.44;;;27.10;nan
2875;BME280;1445;52.600;13.328;2023-09-18T11:42:10;100056.53;;;27.24;nan
2875;BME280;1445;52.600;13.328;2023-09-18T11:44:38;100051.72;;;27.24;nan
2875;BME280;1445;52.600;13.328;2023-09-18T11:47:08;100047.81;;;26.91;nan
2875;BME280;1445;52.600;13.328;2023-09-18T11:49:38;100038.03;;;26.96;nan
2875;BME280;1445;52.600;13.328;2023-09-18T11:52:07;100043.88;;;26.85;nan
2875;BME280;1445;52.600;13.328;2023-09-18T11:54:32;100036.28;;;26.82;nan
2875;BME280;1445;52.600;13.328;2023-09-18T11:57:03;100036.13;;;26.65;nan
2875;BME280;1445;52.600;13.328;2023-09-18T11:59:38;100045.41;;;26.66;nan
2875;BME280;1445;52.600;13.328;2023-09-18T12:02:04;100043.50;;;26.59;nan
2875;BME280;1445;52.600;13.328;2023-09-18T12:04:32;100039.94;;;26.55;nan
2875;BME280;1445;52.600;13.328;2023-09-18T12:06:59;100039.75;;;26.39;nan
2875;BME280;1445;52.600;13.328;2023-09-18T12:09:30;100035.56;;;26.51;nan
2875;BME280;1445;52.600;13.328;2023-09-18T12:11:56;100032.56;;;26.61;nan
2875;BME280;1445;52.600;13.328;2023-09-18T12:14:22;100036.75;;;26.77;nan
2875;BME280;1445;52.600;13.328;2023-09-18T12:16:49;100033.13;;;27.23;nan
2875;BME280;1445;52.600;13.328;2023-09-18T12:19:25;100033.41;;;27.29;nan
2875;BME280;1445;52.600;13.328;2023-09-18T12:22:03;100031.16;;;26.97;nan
2875;BME280;1445;52.600;13.328;2023-09-18T12:24:51;100031.47;;;27.26;nan
2875;BME280;1445;52.600;13.328;2023-09-18T12:27:17;100030.31;;;27.43;nan
2875;BME280;1445;52.600;13.328;2023-09-18T12:29:43;100018.06;;;27.50;nan
2875;BME280;1445;52.600;13.328;2023-09-18T12:32:09;100015.84;;;27.97;nan
2875;BME280;1445;52.600;13.328;2023-09-18T12:34:40;100012.47;;;28.22;nan
2875;BME280;1445;52.600;13.328;2023-09-18T12:37:11;99991.00;;;28.21;nan
2875;BME280;1445;52.600;13.328;2023-09-18T12:39:38;99998.38;;;28.19;nan
2875;BME280;1445;52.600;13.328;2023-09-18T12:42:04;100004.13;;;28.15;nan
2875;BME280;1445;52.600;13.328;2023-09-18T12:44:30;100008.09;;;28.01;nan
2875;BME280;1445;52.600;13.328;2023-09-18T12:46:55;100010.72;;;27.32;nan
2875;BME280;1445;52.600;13.328;2023-09-18T12:49:23;100010.91;;;27.22;nan
2875;BME280;1445;52.600;13.328;2023-09-18T12:51:57;100019.53;;;26.91;nan
2875;BME280;1445;52.600;13.328;2023-09-18T12:54:43;100023.47;;;26.97;nan
2875;BME280;1445;52.600;13.328;2023-09-18T12:57:11;100010.19;;;26.71;nan
2875;BME280;1445;52.600;13.328;2023-09-18T12:59:40;100017.47;;;26.45;nan
2875;BME280;1445;52.600;13.328;2023-09-18T13:02:06;100020.75;;;26.67;nan
2875;BME280;1445;52.600;13.328;2023-09-18T13:04:38;100024.22;;;26.54;nan
2875;BME280;1445;52.600;13.328;2023-09-18T13:09:30;100036.78;;;26.23;nan
2875;BME280;1445;52.600;13.328;2023-09-18T13:11:58;100034.91;;;26.12;nan
2875;BME280;1445;52.600;13.328;2023-09-18T13:14:26;100042.59;;;26.12;nan
2875;BME280;1445;52.600;13.328;2023-09-18T13:16:52;100054.63;;;26.16;nan
2875;BME280;1445;52.600;13.328;2023-09-18T13:19:18;100041.91;;;26.01;nan
2875;BME280;1445;52.600;13.328;2023-09-18T13:21:50;100040.59;;;26.09;nan
2875;BME280;1445;52.600;13.328;2023-09-18T13:24:29;100031.44;;;26.01;nan
2875;BME280;1445;52.600;13.328;2023-09-18T13:26:56;100028.13;;;26.06;nan
2875;BME280;1445;52.600;13.328;2023-09-18T13:29:23;100012.72;;;26.11;nan
2875;BME280;1445;52.600;13.328;2023-09-18T13:31:49;100010.81;;;26.31;nan
2875;BME280;1445;52.600;13.328;2023-09-18T13:34:15;100022.53;;;26.30;nan
2875;BME280;1445;52.600;13.328;2023-09-18T13:36:44;100022.66;;;26.23;nan
2875;BME280;1445;52.600;13.328;2023-09-18T13:39:11;100021.38;;;26.27;nan